Decoded Metar for MDST (SANTIAGO in DOMINICAN REPUBLIC) (IATA:STI) | Meteo·Mobile Aviation Weather
aviador You're here:

MDST Decoded Metar

SANTIAGO in DOMINICAN REPUBLIC
Report Time2018-08-21 10:00:00
UTC Time2018-08-21 10:35:20
Flight Rules vfr VFR
Wind100° at 04 kt
W.Decomp.*RWY 11: 4.0 kt HW -0 kt LCW
W.Rank100° ranks 4
Current wind is below 100° avg. (8.4)
Visibility9999 m
Phenomena:N/A
Clouds:Few 014 Hf
Scattered 300 Hf
Expected CloudBase > 400 ft AGL from Temp-Dew spread
CeilingNone
Temp24°C (ISA +10)
Dew Point23°C (94% RH)
QNH1017 hPa
Density Alt1,978 ft
Elevation567 ft
Report Wrong Elevation
Raw Report
MDST 211000Z 10004KT 9999 FEW014 SCT300 24/23 Q1017=

Extra information for MDST:More info

Metar Taf Metar & Taf Last 4 Metars F.Rules Stats Wind Profile Meteogram Temp Stats Airport Information Weather charts Add Link Nearby VenuesMetar ALERT Operation Metar Decoded Social comments